Latest Coastal Weather Observations for Cocos Island

IDW60701

Issued at 3:45 am WST Thursday 18 September 2014 (issued every 10 minutes, with the page automatically refreshed every 10 minutes)

About coastal observations | Map of coastal stations | Coastal observations for WA | Marine services | Other Formats
Station Details ID: 200284 Name: COCOS ISLAND AIRPORT Lat: -12.19 Lon: 96.83 Height: 3.0 m
Data from the previous 72 hours. | See also: Recent months at Cocos Island
Date/Time
WST
Temp

°C
Wind Pressure Rain
since 9am
mm
Weather Cloud Vis
km
Sea
Height
m
Swell
Dir
 
Speed
knots
Gust
knots
hPa Trend Height
m
Period
s
Dir
18/03:30am 26.3 E 15 22 1012.4 - 0.0 - Partly cloudy 10 - - - -
18/03:00am 26.5 E 18 22 1012.6 - 0.0 - - 10 - - - -
18/02:30am 26.3 E 16 21 1013.0 - 0.0 - - 10 - - - -
18/02:00am 26.5 E 19 24 1013.2 - 0.0 - - 10 - - - -
18/01:30am 26.5 E 19 25 1013.5 - 0.0 - - 10 - - - -
18/01:00am 26.5 E 17 23 1013.8 - 0.0 - Partly cloudy 10 - - - -
18/12:30am 26.6 E 19 25 1014.1 - 0.0 - Partly cloudy 10 - - - -
18/12:00am 26.8 E 18 22 1014.2 - 0.0 - Partly cloudy 10 - - - -
 
Date/Time
WST
Temp

°C
Wind Pressure Rain
since 9am
mm
Weather Cloud Vis
km
Sea
Height
m
Swell
Dir
 
Speed
knots
Gust
knots
hPa Trend Height
m
Period
s
Dir
17/11:30pm 26.8 E 18 25 1014.2 - 0.0 - Partly cloudy 10 - - - -
17/11:00pm 26.8 ESE 15 21 1014.1 - 0.0 - Cloudy 10 - - - -
17/10:30pm 26.9 E 16 21 1014.1 - 0.0 - - 10 - - - -
17/10:00pm 26.8 E 16 23 1013.8 - 0.0 - Partly cloudy 10 - - - -
17/09:30pm 26.9 ESE 16 22 1013.5 - 0.0 - Partly cloudy 10 - - - -
17/09:00pm 26.9 ESE 17 23 1012.9 - 0.0 - Partly cloudy 10 - - - -
17/08:30pm 26.8 E 16 23 1012.7 - 0.0 - Partly cloudy 10 - - - -
17/08:00pm 26.9 ESE 16 23 1012.4 - 0.0 - Cloudy 10 - - - -
17/07:30pm 26.9 ESE 16 21 1012.0 - 0.0 - Partly cloudy 10 - - - -
17/07:20pm 26.9 E 15 25 1011.9 - 0.0 - Partly cloudy 10 - - - -
17/07:00pm 27.2 E 16 22 1011.6 - 0.0 - Partly cloudy 10 - - - -
17/06:30pm 27.4 E 16 22 1011.3 - 0.0 - Partly cloudy 10 - - - -
17/06:00pm 27.8 E 16 23 1011.2 - 0.0 - Partly cloudy 10 - - - -
17/05:30pm 28.0 E 18 23 1011.1 - 0.0 - Partly cloudy 10 - - - -
17/05:00pm 28.1 E 19 23 1010.8 - 0.0 Fine Partly cloudy 18 - - - -
17/04:30pm 28.2 E 19 24 1010.8 - 0.0 - Partly cloudy 10 - - - -
17/04:00pm 28.2 E 18 24 1011.0 - 0.0 - Partly cloudy 10 - - - -
17/03:30pm 28.0 E 20 24 1011.2 - 0.0 - Partly cloudy 10 - - - -
17/03:00pm 28.2 E 19 24 1011.4 - 0.0 - Partly cloudy 10 - - - -
17/02:30pm 28.2 E 19 24 1011.6 - 0.0 - Partly cloudy 10 - - - -
17/02:00pm 28.2 E 20 24 1012.0 - 0.0 Fine Partly cloudy 18 - - - -
17/01:30pm 28.1 E 19 25 1012.5 - 0.0 - Partly cloudy 10 - - - -
17/01:00pm 27.5 E 19 23 1013.0 - 0.0 - Partly cloudy 10 - - - -
17/12:30pm 27.8 E 19 24 1013.4 - 0.0 - Partly cloudy 10 - - - -
17/12:00pm 27.5 E 17 23 1013.8 - 0.0 - Partly cloudy 10 - - - -
17/11:30am 27.7 E 19 25 1013.9 - 0.0 - Partly cloudy 10 - - - -
17/11:00am 27.5 E 18 22 1014.0 - 7.6 Fine Partly cloudy 18 - - - -
17/10:30am 27.5 E 17 22 1014.0 - 7.6 - Partly cloudy 10 - - - -
17/10:00am 27.4 E 17 22 1013.8 - 7.6 - Partly cloudy 10 - - - -
17/09:30am 26.8 E 17 23 1013.4 - 7.6 - Partly cloudy 10 - - - -
17/09:00am 26.7 E 20 24 1013.1 - 7.6 - Partly cloudy 10 - - - -
17/08:30am 26.4 E 18 22 1012.7 - 7.6 - Partly cloudy 10 - - - -
17/08:00am 26.0 E 16 21 1012.5 - 7.6 Fine Partly cloudy 16 - - - -
17/07:30am 26.0 E 17 22 1012.1 - 7.6 - Partly cloudy 10 - - - -
17/07:00am 25.9 E 18 24 1011.7 - 7.6 - Partly cloudy 10 - - - -
17/06:30am 26.0 E 15 20 1011.5 - 7.6 - Partly cloudy 10 - - - -
17/06:00am 26.0 E 16 21 1011.3 - 7.6 - - 10 - - - -
17/05:30am 26.1 E 17 21 1011.0 - 7.6 - Partly cloudy 10 - - - -
17/05:00am 26.1 E 16 20 1010.9 - 7.6 - Cloudy 10 - - - -
17/04:30am 26.1 E 15 21 1011.0 - 7.6 - Partly cloudy 10 - - - -
17/04:00am 26.2 E 15 19 1011.0 - 7.6 - - 10 - - - -
17/03:30am 26.0 ESE 15 20 1011.4 - 7.6 - Partly cloudy 10 - - - -
17/03:00am 26.2 E 14 19 1011.7 - 7.6 - Partly cloudy 10 - - - -
17/02:30am 26.2 E 16 21 1012.0 - 7.6 - Partly cloudy 10 - - - -
17/02:00am 26.3 E 15 20 1012.3 - 7.6 - - 10 - - - -
17/01:30am 26.5 E 15 22 1012.5 - 7.6 - Partly cloudy 10 - - - -
17/01:00am 26.6 E 18 23 1012.8 - 7.6 - Partly cloudy 10 - - - -
17/12:30am 26.6 E 17 22 1012.9 - 7.6 - - 10 - - - -
17/12:00am 26.6 E 16 23 1012.8 - 7.6 - - 10 - - - -
 
Date/Time
WST
Temp

°C
Wind Pressure Rain
since 9am
mm
Weather Cloud Vis
km
Sea
Height
m
Swell
Dir
 
Speed
knots
Gust
knots
hPa Trend Height
m
Period
s
Dir
16/11:30pm 26.6 E 15 22 1012.8 - 7.6 - - 10 - - - -
16/11:00pm 26.6 E 17 22 1012.9 - 7.6 - Cloudy 10 - - - -
16/10:30pm 26.7 ESE 15 20 1012.9 - 7.6 - - 10 - - - -
16/10:00pm 26.8 E 17 22 1012.7 - 7.6 - Partly cloudy 10 - - - -
16/09:30pm 26.6 E 15 21 1012.4 - 7.6 - - 10 - - - -
16/09:00pm 26.6 ESE 18 24 1012.1 - 7.6 - Partly cloudy 10 - - - -
16/08:30pm 26.7 E 15 20 1011.7 - 7.6 - Partly cloudy 10 - - - -
16/08:00pm 26.3 E 14 19 1011.3 - 7.6 - Cloudy 10 - - - -
16/07:47pm 25.5 SE 12 17 1011.2 - 7.6 - Partly cloudy 10 - - - -
16/07:30pm 25.2 SE 16 20 1010.9 - 7.6 - Partly cloudy 8 - - - -
16/07:03pm 24.8 E 17 27 1010.9 - 0.2 - Partly cloudy 5 - - - -
16/07:01pm 24.8 E 19 27 1010.9 - 0.0 - Partly cloudy 7 - - - -
16/07:00pm 25.2 E 19 27 1010.8 - 0.0 - Partly cloudy 9 - - - -
16/06:35pm 27.3 E 17 28 1010.5 - 0.0 - - 10 - - - -
16/06:30pm 27.6 ESE 15 21 1010.4 - 0.0 - - 10 - - - -
16/06:00pm 27.8 E 17 22 1010.1 - 0.0 - Partly cloudy 10 - - - -
16/05:30pm 28.0 E 17 21 1009.9 - 0.0 - Partly cloudy 10 - - - -
16/05:00pm 28.4 E 17 23 1009.9 - 0.0 Distant precip. Partly cloudy 16 - - - -
16/04:30pm 28.1 E 16 22 1010.0 - 0.0 - Partly cloudy 10 - - - -
16/04:00pm 27.6 E 17 23 1010.0 - 0.0 - Partly cloudy 10 - - - -
16/03:30pm 28.1 E 15 22 1010.3 - 0.0 - Partly cloudy 10 - - - -
16/03:00pm 28.4 ESE 17 22 1010.6 - 0.0 - Partly cloudy 10 - - - -
16/02:30pm 28.6 ESE 16 21 1010.9 - 0.0 - Partly cloudy 10 - - - -
16/02:00pm 28.6 ESE 15 21 1011.4 - 0.0 Fine Partly cloudy 18 - - - -
16/01:30pm 28.0 ESE 16 21 1011.7 - 0.0 - Partly cloudy 10 - - - -
16/01:00pm 28.2 E 16 21 1012.0 - 0.0 - Partly cloudy 10 - - - -
16/12:30pm 27.9 ESE 17 22 1012.4 - 0.0 - Partly cloudy 10 - - - -
16/12:00pm 27.0 SE 15 18 1013.0 - 0.0 - Partly cloudy 10 - - - -
16/11:30am 26.7 SE 16 21 1013.3 - 0.0 - Partly cloudy 10 - - - -
16/11:00am 26.6 SE 16 20 1013.6 - 1.6 Fine Mostly cloudy 16 - - - -
16/10:30am 27.0 ESE 13 18 1013.3 - 1.6 - Partly cloudy 10 - - - -
16/10:00am 25.9 SE 15 19 1013.4 - 1.6 Drizzle Partly cloudy 10 - - - -
16/09:27am 25.9 ESE 14 23 1013.1 - 1.6 - Partly cloudy 10 - - - -
16/09:00am 26.1 ESE 15 20 1013.1 - 1.0 Showers Partly cloudy 10 - - - -
16/08:30am 25.9 E 12 20 1012.7 - 1.0 - Partly cloudy 10 - - - -
16/08:17am 25.1 ESE 14 20 1012.7 - 1.0 - Partly cloudy 10 - - - -
16/08:05am 26.3 E 14 20 1012.6 - 0.0 Showers Partly cloudy 7 - - - -
16/08:00am 26.4 E 13 19 1012.5 - 0.0 Fine Cloudy 16 - - - -
16/07:30am 26.3 E 16 21 1012.4 - 0.0 - Partly cloudy 10 - - - -
16/07:00am 26.3 E 14 19 1012.0 - 0.0 - Partly cloudy 10 - - - -
16/06:30am 26.2 E 15 19 1011.8 - 0.0 - Partly cloudy 10 - - - -
16/06:00am 26.2 E 15 19 1011.5 - 0.0 - Partly cloudy 10 - - - -
16/05:30am 26.5 E 18 22 1011.3 - 0.0 - Partly cloudy 10 - - - -
16/05:00am 26.3 E 15 20 1011.5 - 0.0 - Cloudy 10 - - - -
16/04:30am 26.4 E 17 21 1011.7 - 0.0 - Partly cloudy 10 - - - -
16/04:00am 26.5 E 15 20 1011.9 - 0.0 - - 10 - - - -
16/03:30am 26.5 E 15 21 1012.0 - 0.0 - Partly cloudy 10 - - - -
16/03:00am 26.6 E 14 18 1012.3 - 0.0 - Partly cloudy 10 - - - -
16/02:30am 26.6 E 15 19 1012.6 - 0.0 - Partly cloudy 10 - - - -
16/02:00am 26.6 E 16 20 1012.8 - 0.0 - - 10 - - - -
16/01:30am 26.6 E 14 19 1012.9 - 0.0 - Partly cloudy 10 - - - -
16/01:00am 26.7 E 13 19 1012.9 - 0.0 - Partly cloudy 10 - - - -
16/12:30am 26.7 ESE 12 17 1013.1 - 0.0 - - 10 - - - -
16/12:00am 26.9 E 15 21 1013.3 - 0.0 - Partly cloudy 10 - - - -
 
Date/Time
WST
Temp

°C
Wind Pressure Rain
since 9am
mm
Weather Cloud Vis
km
Sea
Height
m
Swell
Dir
 
Speed
knots
Gust
knots
hPa Trend Height
m
Period
s
Dir
15/11:30pm 26.8 E 14 20 1013.4 - 0.0 - Partly cloudy 10 - - - -
15/11:00pm 26.9 ESE 13 17 1013.4 - 0.0 - - 10 - - - -
15/10:30pm 26.9 ESE 13 17 1013.4 - 0.0 - Partly cloudy 10 - - - -
15/10:00pm 26.6 ESE 13 18 1013.6 - 0.0 - - 10 - - - -
15/09:30pm 26.8 ESE 15 22 1013.3 - 0.0 - Partly cloudy 10 - - - -
15/09:00pm 27.0 E 14 19 1013.0 - 0.0 - Partly cloudy 10 - - - -
15/08:30pm 27.0 E 14 18 1012.7 - 0.0 - Partly cloudy 10 - - - -
15/08:00pm 27.2 E 15 19 1012.4 - 0.0 - Cloudy 10 - - - -
15/07:30pm 27.2 E 14 19 1012.0 - 0.0 - - 10 - - - -
15/07:00pm 27.4 E 15 21 1011.7 - 0.0 - - 10 - - - -
15/06:30pm 27.4 E 15 21 1011.4 - 0.0 - Partly cloudy 10 - - - -
15/06:00pm 27.9 E 18 23 1011.4 - 0.0 - Mostly clear 10 - - - -
15/05:30pm 28.0 E 17 22 1011.5 - 0.0 - Mostly clear 10 - - - -
15/05:00pm 28.3 E 16 22 1011.5 - 0.0 Fine Partly cloudy 20 - - - -
15/04:30pm 28.1 E 18 22 1011.6 - 0.0 - Partly cloudy 10 - - - -
15/04:00pm 28.5 E 18 23 1011.9 - 0.0 - Mostly clear 10 - - - -
15/03:30pm 28.2 E 18 22 1012.0 - 0.0 - Partly cloudy 10 - - - -
15/03:00pm 28.3 E 18 22 1012.2 - 0.0 - Mostly clear 10 - - - -
15/02:30pm 28.5 E 18 22 1012.7 - 0.0 - Mostly clear 10 - - - -
15/02:00pm 28.2 E 19 23 1013.1 - 0.0 Fine Partly cloudy 17 - - - -
15/01:30pm 28.3 E 18 23 1013.6 - 0.0 - Partly cloudy 10 - - - -
15/01:00pm 28.0 E 19 23 1013.8 - 0.0 - Partly cloudy 10 - - - -
15/12:30pm 28.1 E 18 23 1014.0 - 0.0 - Mostly clear 10 - - - -
15/12:00pm 27.8 E 19 23 1014.4 - 0.0 - Partly cloudy 10 - - - -
15/11:30am 27.6 E 19 23 1014.5 - 0.0 - Mostly clear 10 - - - -
15/11:00am 27.6 E 21 25 1014.7 - 0.0 Smoke Mostly cloudy 16 - - - -
15/10:30am 27.2 E 18 24 1014.5 - 0.0 - Mostly clear 10 - - - -
15/10:00am 27.0 E 19 23 1014.3 - 0.0 - Mostly clear 10 - - - -
15/09:30am 26.9 E 20 24 1014.2 - 0.0 - Mostly clear 10 - - - -
15/09:00am 26.7 E 20 23 1013.9 - 0.0 - Mostly clear 10 - - - -
15/08:30am 26.6 E 19 23 1013.6 - 0.0 - Mostly clear 10 - - - -
15/08:00am 26.4 E 19 22 1013.3 - 0.0 Smoke Mostly cloudy 18 - - - -
15/07:30am 26.3 E 20 23 1012.9 - 0.0 - Mostly clear 10 - - - -
15/07:00am 26.3 E 18 21 1012.9 - 0.0 - Mostly clear 10 - - - -
15/06:30am 26.3 E 17 21 1012.8 - 0.0 - - 10 - - - -
15/06:00am 26.3 ENE 18 21 1012.5 - 0.0 - Partly cloudy 10 - - - -
15/05:30am 26.3 E 17 19 1012.6 - 0.0 - Partly cloudy 10 - - - -

Other Formats:

Comma delimited format used in spreadsheet applications
http://www.bom.gov.au/fwo/IDW60701/IDW60701.96996.axf

JavaScript Object Notation format (JSON) in row-major order
http://www.bom.gov.au/fwo/IDW60701/IDW60701.96996.json